Time;durP1;ratioP1;P1;durP2;ratioP2;P2;SDS_P1;SDS_P2;PMS_P1;PMS_P2;Temp;Humidity;BMP_temperature;BMP_pressure;BME280_temperature;BME280_humidity;BME280_pressure;Samples;Min_cycle;Max_cycle;Signal;HPM_P1;HPM_P2
2023/01/10 00:02:22;;;;;;;5.77;4.63;;;16.10;60.30;;;;;;4981160;28;20445;-78
2023/01/10 00:04:50;;;;;;;6.10;4.73;;;16.10;60.40;;;;;;4980079;28;20506;-78
2023/01/10 00:07:18;;;;;;;7.67;5.23;;;16.10;60.30;;;;;;4981613;28;20476;-78
2023/01/10 00:09:47;;;;;;;8.17;4.83;;;16.10;60.30;;;;;;4976258;28;20980;-77
2023/01/10 00:15:00;;;;;;;8.87;5.60;;;16.10;60.60;;;;;;4987098;28;20529;-77
2023/01/10 00:17:28;;;;;;;7.47;4.63;;;16.10;60.60;;;;;;4984474;28;20452;-78
2023/01/10 00:19:56;;;;;;;5.07;4.10;;;16.10;60.70;;;;;;4984042;28;20455;-78
2023/01/10 00:22:25;;;;;;;5.20;4.20;;;16.10;60.60;;;;;;4979180;28;20443;-77
2023/01/10 00:24:54;;;;;;;6.20;4.30;;;16.20;60.70;;;;;;4980658;28;20488;-77
2023/01/10 00:27:22;;;;;;;7.07;4.50;;;16.20;60.70;;;;;;4985458;28;20450;-77
2023/01/10 00:29:52;;;;;;;9.60;4.80;;;16.10;60.70;;;;;;4982550;28;20450;-78
2023/01/10 00:32:20;;;;;;;5.43;4.37;;;16.10;60.70;;;;;;4982420;28;20541;-78
2023/01/10 00:34:48;;;;;;;6.80;4.63;;;16.10;60.80;;;;;;4981948;28;20462;-78
2023/01/10 00:37:16;;;;;;;4.53;4.07;;;16.10;60.70;;;;;;4975154;28;20444;-77
2023/01/10 00:39:44;;;;;;;7.47;5.20;;;16.10;60.60;;;;;;4981254;28;20478;-78
2023/01/10 00:44:59;;;;;;;4.87;4.37;;;16.10;60.50;;;;;;4980870;28;20475;-77
2023/01/10 00:47:27;;;;;;;5.83;4.27;;;16.10;60.50;;;;;;4975764;28;20446;-77
2023/01/10 00:49:55;;;;;;;7.50;4.10;;;16.10;60.60;;;;;;4980717;28;20457;-77
2023/01/10 00:52:23;;;;;;;5.63;4.20;;;16.10;60.50;;;;;;4975934;28;20442;-77
2023/01/10 00:54:51;;;;;;;5.63;4.50;;;16.10;60.40;;;;;;4981883;28;20552;-77
2023/01/10 00:57:21;;;;;;;6.30;4.13;;;16.00;60.20;;;;;;4978989;28;20453;-77
2023/01/10 00:59:49;;;;;;;4.63;4.20;;;16.00;60.40;;;;;;4979771;28;20454;-78
2023/01/10 01:02:17;;;;;;;5.00;4.20;;;16.00;60.30;;;;;;4978317;28;20485;-78
2023/01/10 01:04:45;;;;;;;8.10;4.67;;;16.00;60.40;;;;;;4970012;28;20478;-77
2023/01/10 01:07:13;;;;;;;6.07;4.63;;;16.00;60.20;;;;;;4964313;28;20439;-78
2023/01/10 01:12:25;;;;;;;5.63;4.50;;;16.00;60.20;;;;;;4982933;28;20438;-77
2023/01/10 01:14:52;;;;;;;6.80;4.90;;;15.90;60.20;;;;;;4982469;28;20996;-78
2023/01/10 01:17:21;;;;;;;7.27;4.43;;;15.90;60.20;;;;;;4974089;28;20450;-78
2023/01/10 01:19:48;;;;;;;7.00;5.00;;;16.00;60.30;;;;;;4978847;28;20458;-77
2023/01/10 01:22:16;;;;;;;7.63;4.50;;;15.90;60.20;;;;;;4972789;28;20493;-77
2023/01/10 01:24:44;;;;;;;6.67;4.60;;;15.90;60.10;;;;;;4971582;28;20473;-77
2023/01/10 01:27:12;;;;;;;6.00;4.07;;;15.90;60.00;;;;;;4969542;28;20465;-78
2023/01/10 01:29:42;;;;;;;8.50;3.90;;;15.90;60.10;;;;;;4971898;28;20462;-77
2023/01/10 01:32:10;;;;;;;6.03;4.83;;;15.90;60.10;;;;;;4973358;28;20458;-77
2023/01/10 01:34:39;;;;;;;5.80;4.13;;;15.90;60.20;;;;;;4982629;28;20474;-78
2023/01/10 01:37:07;;;;;;;7.00;4.43;;;15.90;60.20;;;;;;4964679;28;20537;-78
2023/01/10 01:39:35;;;;;;;5.47;4.57;;;15.90;60.20;;;;;;4973298;28;20461;-79
2023/01/10 01:42:04;;;;;;;6.23;4.70;;;15.90;60.10;;;;;;4965715;28;20852;-78
2023/01/10 01:44:33;;;;;;;6.43;4.60;;;15.90;60.30;;;;;;4978376;28;20544;-78
2023/01/10 01:47:03;;;;;;;7.20;5.07;;;15.90;60.10;;;;;;4979252;28;20457;-77
2023/01/10 01:49:32;;;;;;;6.10;5.17;;;15.90;60.30;;;;;;4970516;28;20447;-78
2023/01/10 01:52:02;;;;;;;7.23;4.50;;;15.90;60.10;;;;;;4963741;28;20475;-78
2023/01/10 01:54:30;;;;;;;6.10;5.03;;;15.90;60.20;;;;;;4971967;28;20485;-78
2023/01/10 01:57:00;;;;;;;9.43;5.27;;;15.90;60.30;;;;;;4976126;28;20462;-77
2023/01/10 01:59:29;;;;;;;10.13;5.00;;;15.90;60.20;;;;;;4967898;28;20529;-77
2023/01/10 02:01:59;;;;;;;8.13;4.93;;;15.90;60.20;;;;;;4973208;28;20450;-78
2023/01/10 02:04:29;;;;;;;5.70;4.57;;;15.80;60.20;;;;;;4977792;28;20470;-78
2023/01/10 02:06:58;;;;;;;8.70;5.20;;;15.80;60.20;;;;;;4977495;28;20484;-78
2023/01/10 02:09:28;;;;;;;8.20;4.40;;;15.80;60.10;;;;;;4970873;28;20467;-77
2023/01/10 02:11:56;;;;;;;7.13;4.67;;;15.80;60.20;;;;;;4975914;28;20458;-78
2023/01/10 02:14:24;;;;;;;5.23;4.40;;;15.80;60.20;;;;;;4973900;28;20474;-78
2023/01/10 02:16:52;;;;;;;6.53;4.70;;;15.80;60.30;;;;;;4979319;28;20457;-78
2023/01/10 02:19:24;;;;;;;8.27;5.13;;;15.80;60.00;;;;;;4973635;28;20442;-79
2023/01/10 02:22:34;;;;;;;5.97;4.70;;;15.80;60.00;;;;;;4979898;28;20457;-78
2023/01/10 02:25:29;;;;;;;6.73;4.40;;;15.80;60.10;;;;;;4977614;28;20469;-78
2023/01/10 02:28:08;;;;;;;7.53;4.40;;;15.70;60.00;;;;;;4970076;28;20460;-78
2023/01/10 02:30:51;;;;;;;5.23;4.57;;;15.80;60.20;;;;;;4972027;28;20466;-78
2023/01/10 02:33:21;;;;;;;6.50;4.50;;;15.80;60.10;;;;;;4975460;28;20505;-77
2023/01/10 02:35:58;;;;;;;5.43;4.37;;;15.70;60.20;;;;;;4976293;28;20450;-77
2023/01/10 02:38:32;;;;;;;7.00;5.03;;;15.70;60.20;;;;;;4967890;28;20450;-78
2023/01/10 02:41:03;;;;;;;8.97;4.30;;;15.70;60.10;;;;;;4966276;28;20462;-77
2023/01/10 02:43:32;;;;;;;4.97;4.47;;;15.70;60.40;;;;;;4972159;28;20470;-78
2023/01/10 02:46:04;;;;;;;8.60;4.73;;;15.70;60.30;;;;;;4970593;28;20482;-77
2023/01/10 02:48:33;;;;;;;7.17;4.73;;;15.70;60.40;;;;;;4974394;28;20489;-78
2023/01/10 02:51:02;;;;;;;8.13;4.93;;;15.80;60.40;;;;;;4968176;28;20450;-78
2023/01/10 02:53:32;;;;;;;9.43;4.93;;;15.80;60.50;;;;;;4971334;28;20479;-79
2023/01/10 02:56:30;;;;;;;9.03;5.40;;;15.80;60.40;;;;;;4974747;28;20465;-77
2023/01/10 02:59:20;;;;;;;6.87;4.87;;;15.80;60.60;;;;;;4952499;28;20458;-78
2023/01/10 03:01:55;;;;;;;5.87;4.53;;;15.80;61.20;;;;;;4967103;28;20457;-78
2023/01/10 03:04:28;;;;;;;6.20;5.20;;;15.80;60.60;;;;;;4967930;28;20478;-78
2023/01/10 03:06:59;;;;;;;5.30;4.80;;;15.80;60.60;;;;;;4972169;28;20451;-77
2023/01/10 03:09:30;;;;;;;5.93;4.60;;;15.80;60.60;;;;;;4973692;28;20457;-77
2023/01/10 03:12:12;;;;;;;5.70;4.30;;;15.80;60.60;;;;;;4973903;28;20565;-78
2023/01/10 03:14:40;;;;;;;15.13;7.80;;;15.80;60.40;;;;;;4972838;28;20526;-78
2023/01/10 03:17:10;;;;;;;11.40;7.73;;;15.80;60.60;;;;;;4971101;28;20449;-78
2023/01/10 03:19:41;;;;;;;11.10;7.90;;;15.70;60.60;;;;;;4976004;28;20454;-79
2023/01/10 03:22:09;;;;;;;14.10;7.60;;;15.70;60.50;;;;;;4976214;28;20454;-78
2023/01/10 03:24:40;;;;;;;10.87;6.67;;;15.70;60.40;;;;;;4972002;28;20466;-78
2023/01/10 03:27:10;;;;;;;12.27;7.20;;;15.70;60.50;;;;;;4978047;28;20487;-78
2023/01/10 03:29:42;;;;;;;9.30;6.50;;;15.70;60.50;;;;;;4977812;28;20457;-79
2023/01/10 03:32:10;;;;;;;13.17;6.90;;;15.70;60.60;;;;;;4974791;28;20470;-78
2023/01/10 03:34:40;;;;;;;9.30;7.10;;;15.70;60.60;;;;;;4972331;28;21003;-79
2023/01/10 03:37:10;;;;;;;12.70;7.27;;;15.70;60.60;;;;;;4978763;28;20471;-79
2023/01/10 03:39:42;;;;;;;10.63;7.13;;;15.70;60.60;;;;;;4974398;28;20454;-79
2023/01/10 03:42:12;;;;;;;9.67;6.67;;;15.70;60.60;;;;;;4973135;28;20458;-78
2023/01/10 03:44:44;;;;;;;9.80;6.50;;;15.70;60.60;;;;;;4960994;28;20481;-78
2023/01/10 03:47:15;;;;;;;9.00;6.60;;;15.70;60.70;;;;;;4966962;28;20449;-78
2023/01/10 03:49:47;;;;;;;11.47;6.50;;;15.70;60.70;;;;;;4966759;28;20459;-78
2023/01/10 03:52:16;;;;;;;8.53;5.80;;;15.70;60.70;;;;;;4975120;28;20537;-78
2023/01/10 03:54:45;;;;;;;8.10;6.30;;;15.70;60.80;;;;;;4971629;28;20481;-78
2023/01/10 03:57:17;;;;;;;10.23;6.40;;;15.70;60.70;;;;;;4967794;28;20450;-79
2023/01/10 03:59:45;;;;;;;6.83;5.53;;;15.70;60.60;;;;;;4980575;28;20460;-78
2023/01/10 04:02:13;;;;;;;8.93;6.30;;;15.70;60.80;;;;;;4976516;28;20454;-79
2023/01/10 04:04:42;;;;;;;13.43;5.80;;;15.70;60.70;;;;;;4972872;28;20510;-78
2023/01/10 04:07:11;;;;;;;8.00;5.93;;;15.70;60.70;;;;;;4974491;28;20485;-78
2023/01/10 04:09:39;;;;;;;7.83;6.00;;;15.70;60.70;;;;;;4975788;28;20465;-78
2023/01/10 04:12:07;;;;;;;9.33;6.40;;;15.70;60.70;;;;;;4975577;28;20469;-78
2023/01/10 04:14:35;;;;;;;10.87;5.87;;;15.70;60.50;;;;;;4968823;28;20486;-79
2023/01/10 04:17:03;;;;;;;10.03;5.40;;;15.70;60.70;;;;;;4966606;28;20454;-78
2023/01/10 04:19:31;;;;;;;9.80;6.40;;;15.70;60.70;;;;;;4972041;28;20466;-78
2023/01/10 04:21:59;;;;;;;6.90;5.20;;;15.70;60.70;;;;;;4973787;28;20466;-78
2023/01/10 04:24:28;;;;;;;10.87;6.33;;;15.70;60.70;;;;;;4974714;28;20469;-78
2023/01/10 04:26:56;;;;;;;9.13;5.50;;;15.70;60.70;;;;;;4970809;28;20485;-78
2023/01/10 04:29:23;;;;;;;6.73;5.17;;;15.70;60.70;;;;;;4969040;28;20481;-78
2023/01/10 04:31:51;;;;;;;8.93;5.83;;;15.70;60.60;;;;;;4972012;28;20455;-78
2023/01/10 04:34:20;;;;;;;7.93;5.20;;;15.70;60.70;;;;;;4972268;28;20534;-78
2023/01/10 04:36:49;;;;;;;9.87;5.70;;;15.60;60.70;;;;;;4976104;28;20453;-78
2023/01/10 04:39:17;;;;;;;6.83;4.77;;;15.70;60.70;;;;;;4970104;28;20447;-79
2023/01/10 04:41:46;;;;;;;8.10;5.37;;;15.70;60.80;;;;;;4970045;28;20461;-79
2023/01/10 04:44:14;;;;;;;8.20;5.37;;;15.70;60.90;;;;;;4965872;28;20482;-78
2023/01/10 04:46:42;;;;;;;8.30;4.83;;;15.70;60.70;;;;;;4971641;28;20482;-78
2023/01/10 04:49:10;;;;;;;7.57;5.30;;;15.70;60.90;;;;;;4967824;28;20461;-79
2023/01/10 04:51:38;;;;;;;10.83;5.30;;;15.70;60.90;;;;;;4974302;28;20450;-79
2023/01/10 04:54:06;;;;;;;7.27;5.13;;;15.60;60.80;;;;;;4974976;28;20481;-78
2023/01/10 04:56:34;;;;;;;7.77;5.23;;;15.70;61.00;;;;;;4968403;28;20450;-78
2023/01/10 04:59:05;;;;;;;12.43;5.63;;;15.70;60.90;;;;;;4970891;28;20454;-79
2023/01/10 05:01:34;;;;;;;6.03;5.00;;;15.70;60.90;;;;;;4978486;28;20512;-78
2023/01/10 05:04:02;;;;;;;10.37;5.40;;;15.70;61.00;;;;;;4975105;28;20477;-78
2023/01/10 05:06:30;;;;;;;9.90;5.40;;;15.70;60.60;;;;;;4975441;28;20481;-77
2023/01/10 05:08:58;;;;;;;6.90;4.97;;;15.60;60.90;;;;;;4971757;28;20453;-78
2023/01/10 05:11:26;;;;;;;9.20;4.77;;;15.60;60.80;;;;;;4972571;28;20454;-78
2023/01/10 05:13:54;;;;;;;6.47;5.20;;;15.70;61.00;;;;;;4970284;28;20482;-78
2023/01/10 05:16:24;;;;;;;7.47;5.10;;;15.60;60.90;;;;;;4976702;28;20457;-77
2023/01/10 05:18:52;;;;;;;8.90;5.10;;;15.60;61.10;;;;;;4976100;28;20458;-78
2023/01/10 05:21:20;;;;;;;7.47;4.87;;;15.60;60.90;;;;;;4971994;28;20462;-78
2023/01/10 05:23:48;;;;;;;7.00;4.97;;;15.70;61.20;;;;;;4979042;28;20481;-78
2023/01/10 05:26:17;;;;;;;9.00;5.43;;;15.70;61.20;;;;;;4971505;28;20466;-78
2023/01/10 05:28:45;;;;;;;7.63;4.73;;;15.70;61.20;;;;;;4977803;28;20472;-78
2023/01/10 05:31:15;;;;;;;7.50;4.53;;;15.70;61.40;;;;;;4971257;28;20458;-78
2023/01/10 05:33:45;;;;;;;7.47;5.00;;;15.70;61.20;;;;;;4973740;28;20508;-77
2023/01/10 05:36:13;;;;;;;6.30;5.23;;;15.70;61.20;;;;;;4977038;28;20453;-77
2023/01/10 05:38:41;;;;;;;7.60;5.27;;;15.70;61.20;;;;;;4970123;28;20454;-78
2023/01/10 05:41:09;;;;;;;5.90;4.07;;;15.70;61.40;;;;;;4974807;28;20454;-78
2023/01/10 05:43:37;;;;;;;9.73;4.90;;;15.70;61.30;;;;;;4971339;28;20506;-77
2023/01/10 05:46:05;;;;;;;9.07;4.60;;;15.60;61.40;;;;;;4973102;28;20462;-78
2023/01/10 05:48:34;;;;;;;10.50;5.20;;;15.70;61.50;;;;;;4981263;28;20459;-77
2023/01/10 05:51:03;;;;;;;8.00;4.13;;;15.70;61.40;;;;;;4979917;28;20454;-78
2023/01/10 05:53:31;;;;;;;8.80;4.97;;;15.70;61.40;;;;;;4973769;28;20490;-77
2023/01/10 05:56:00;;;;;;;5.50;4.50;;;15.70;61.40;;;;;;4975312;28;20464;-77
2023/01/10 05:58:29;;;;;;;10.23;4.73;;;15.70;61.30;;;;;;4981125;28;20469;-77
2023/01/10 06:00:57;;;;;;;7.10;4.40;;;15.70;61.40;;;;;;4976476;28;20464;-77
2023/01/10 06:03:26;;;;;;;10.27;4.40;;;15.70;61.20;;;;;;4975073;28;20485;-79
2023/01/10 06:05:54;;;;;;;5.20;4.20;;;15.70;61.60;;;;;;4977606;28;20481;-78
2023/01/10 06:08:23;;;;;;;5.93;4.00;;;15.70;61.60;;;;;;4976807;28;20474;-78
2023/01/10 06:10:53;;;;;;;5.33;4.13;;;15.70;61.60;;;;;;4977032;28;20542;-78
2023/01/10 06:13:21;;;;;;;6.17;4.10;;;15.70;61.40;;;;;;4981878;28;20482;-78
2023/01/10 06:15:49;;;;;;;6.67;4.40;;;15.70;61.30;;;;;;4969847;28;20451;-78
2023/01/10 06:18:17;;;;;;;6.93;4.40;;;15.70;61.30;;;;;;4977001;28;20458;-78
2023/01/10 06:20:44;;;;;;;6.07;4.50;;;15.60;61.40;;;;;;4978575;28;20462;-78
2023/01/10 06:23:12;;;;;;;6.20;4.00;;;15.60;61.20;;;;;;4974978;28;20481;-77
2023/01/10 06:25:41;;;;;;;6.00;4.40;;;15.60;61.20;;;;;;4967610;28;20466;-77
2023/01/10 06:28:09;;;;;;;4.70;3.93;;;15.60;61.20;;;;;;4972379;28;20486;-78
2023/01/10 06:30:38;;;;;;;4.03;3.63;;;15.60;61.10;;;;;;4978341;28;20453;-78
2023/01/10 06:33:06;;;;;;;7.70;4.57;;;15.60;61.00;;;;;;4971579;28;20556;-78
2023/01/10 06:35:34;;;;;;;7.40;4.40;;;15.60;61.20;;;;;;4976598;28;20457;-78
2023/01/10 06:38:02;;;;;;;7.10;4.63;;;15.60;61.10;;;;;;4976388;28;20451;-77
2023/01/10 06:40:30;;;;;;;10.93;4.20;;;15.60;61.10;;;;;;4973445;28;20455;-77
2023/01/10 06:42:59;;;;;;;6.00;3.60;;;15.60;61.00;;;;;;4973510;28;20475;-78
2023/01/10 06:45:27;;;;;;;7.30;4.20;;;15.60;61.10;;;;;;4975626;28;20461;-77
2023/01/10 06:47:55;;;;;;;12.60;4.60;;;15.60;61.00;;;;;;4981227;28;20484;-79
2023/01/10 06:50:23;;;;;;;5.60;4.20;;;15.60;61.10;;;;;;4981449;28;20457;-78
2023/01/10 06:52:58;;;;;;;7.70;4.27;;;15.50;61.10;;;;;;4973931;28;20482;-78
2023/01/10 06:55:26;;;;;;;6.30;4.00;;;15.60;61.20;;;;;;4971836;28;20462;-78
2023/01/10 06:57:57;;;;;;;5.60;3.70;;;15.50;60.90;;;;;;4978524;28;20455;-77
2023/01/10 07:00:27;;;;;;;7.20;3.87;;;15.50;61.00;;;;;;4968767;28;20465;-77
2023/01/10 07:02:56;;;;;;;6.80;4.60;;;15.50;61.10;;;;;;4974165;28;20482;-78
2023/01/10 07:05:24;;;;;;;6.13;4.23;;;15.50;61.10;;;;;;4971415;28;20454;-78
2023/01/10 07:07:52;;;;;;;5.57;3.90;;;15.50;61.20;;;;;;4971851;28;20470;-78
2023/01/10 07:10:19;;;;;;;7.80;4.23;;;15.60;61.10;;;;;;4977883;28;20469;-78
2023/01/10 07:12:47;;;;;;;5.87;3.63;;;15.60;61.10;;;;;;4975785;28;20464;-78
2023/01/10 07:15:16;;;;;;;6.10;3.70;;;15.50;60.90;;;;;;4974762;28;20461;-78
2023/01/10 07:17:45;;;;;;;6.23;3.93;;;15.50;60.90;;;;;;4975918;28;20615;-78
2023/01/10 07:20:13;;;;;;;6.90;3.93;;;15.50;60.90;;;;;;4972131;28;20453;-78
2023/01/10 07:22:41;;;;;;;7.77;3.67;;;15.50;61.20;;;;;;4973861;28;20470;-78
2023/01/10 07:25:09;;;;;;;7.63;3.93;;;15.50;61.10;;;;;;4972894;28;20466;-78
2023/01/10 07:27:42;;;;;;;11.83;4.33;;;15.50;61.10;;;;;;4977853;28;20486;-78
2023/01/10 07:30:11;;;;;;;8.87;3.67;;;15.50;61.10;;;;;;4972784;28;20488;-78
2023/01/10 07:32:39;;;;;;;9.77;4.37;;;15.50;61.00;;;;;;4969907;28;20474;-78
2023/01/10 07:35:09;;;;;;;5.17;3.17;;;15.50;61.10;;;;;;4972024;28;20462;-78
2023/01/10 07:37:37;;;;;;;9.00;3.50;;;15.50;61.10;;;;;;4972508;28;20439;-77
2023/01/10 07:40:05;;;;;;;8.37;4.10;;;15.50;60.90;;;;;;4973722;28;20454;-76
2023/01/10 07:42:33;;;;;;;6.97;3.60;;;15.50;61.10;;;;;;4973398;28;20461;-77
2023/01/10 07:45:01;;;;;;;7.03;3.50;;;15.50;61.10;;;;;;4978066;28;20461;-78
2023/01/10 07:47:29;;;;;;;5.17;3.67;;;15.50;61.00;;;;;;4974406;28;20478;-77
2023/01/10 07:49:57;;;;;;;10.63;4.03;;;15.50;60.80;;;;;;4978811;28;20450;-78
2023/01/10 07:52:27;;;;;;;10.10;4.27;;;15.50;60.90;;;;;;4976200;28;20489;-78
2023/01/10 07:54:55;;;;;;;7.50;3.80;;;15.40;61.00;;;;;;4979133;28;20470;-78
2023/01/10 07:57:23;;;;;;;7.20;3.47;;;15.50;61.00;;;;;;4978684;28;20454;-78
2023/01/10 07:59:51;;;;;;;5.80;3.33;;;15.50;60.90;;;;;;4973407;28;20457;-79
2023/01/10 08:02:19;;;;;;;7.23;3.93;;;15.50;60.90;;;;;;4979257;28;20454;-77
2023/01/10 08:04:47;;;;;;;9.50;3.60;;;15.50;60.80;;;;;;4980050;28;20470;-78
2023/01/10 08:07:16;;;;;;;7.80;3.70;;;15.50;60.80;;;;;;4979325;28;20446;-78
2023/01/10 08:09:45;;;;;;;8.10;4.40;;;15.50;60.80;;;;;;4972748;28;20447;-78
2023/01/10 08:12:13;;;;;;;7.53;3.77;;;15.50;60.70;;;;;;4979341;28;20461;-78
2023/01/10 08:14:42;;;;;;;6.27;3.50;;;15.50;60.60;;;;;;4970205;28;20482;-77
2023/01/10 08:17:10;;;;;;;6.40;3.50;;;15.50;60.60;;;;;;4979432;28;20461;-77
2023/01/10 08:19:38;;;;;;;6.80;3.50;;;15.50;60.50;;;;;;4977515;28;20454;-78
2023/01/10 08:22:06;;;;;;;8.40;3.70;;;15.50;60.60;;;;;;4969528;28;20451;-77
2023/01/10 08:24:34;;;;;;;7.30;3.97;;;15.50;60.70;;;;;;4976356;28;20462;-77
2023/01/10 08:27:03;;;;;;;8.83;3.93;;;15.60;60.60;;;;;;4968416;28;20446;-77
2023/01/10 08:29:31;;;;;;;6.60;3.73;;;15.60;60.60;;;;;;4972236;28;20477;-78
2023/01/10 08:31:59;;;;;;;7.60;3.63;;;15.60;60.80;;;;;;4975527;28;20473;-78
2023/01/10 08:34:27;;;;;;;7.87;3.90;;;15.60;60.50;;;;;;4974891;28;20476;-78
2023/01/10 08:36:56;;;;;;;6.90;3.40;;;15.60;60.70;;;;;;4980536;28;20456;-78
2023/01/10 08:39:25;;;;;;;10.40;4.23;;;15.60;60.50;;;;;;4978702;28;20450;-79
2023/01/10 08:41:53;;;;;;;8.00;3.43;;;15.60;60.50;;;;;;4976057;28;20465;-78
2023/01/10 08:44:23;;;;;;;6.87;3.50;;;15.70;60.70;;;;;;4975266;28;20469;-78
2023/01/10 08:46:51;;;;;;;8.70;3.80;;;15.70;60.60;;;;;;4970259;28;20451;-78
2023/01/10 08:49:19;;;;;;;8.43;3.60;;;15.70;60.70;;;;;;4975424;28;20473;-77
2023/01/10 08:51:47;;;;;;;5.93;3.40;;;15.70;60.90;;;;;;4976440;28;20458;-79
2023/01/10 08:54:15;;;;;;;7.27;3.87;;;15.70;60.90;;;;;;4973651;28;20482;-78
2023/01/10 08:56:43;;;;;;;8.23;3.57;;;15.70;60.80;;;;;;4974805;28;20465;-78
2023/01/10 08:59:11;;;;;;;11.17;3.33;;;15.70;60.70;;;;;;4981658;28;20426;-80
2023/01/10 09:01:40;;;;;;;9.00;3.63;;;15.70;60.90;;;;;;4977943;28;20454;-78
2023/01/10 09:04:08;;;;;;;7.80;3.90;;;15.70;60.90;;;;;;4972280;28;20493;-79
2023/01/10 09:06:36;;;;;;;8.80;3.70;;;15.70;60.70;;;;;;4980120;28;20442;-77
2023/01/10 09:09:04;;;;;;;9.63;3.50;;;15.70;60.90;;;;;;4979816;28;20474;-78
2023/01/10 09:11:33;;;;;;;8.90;4.00;;;15.80;61.20;;;;;;4981233;28;20450;-79
2023/01/10 09:14:01;;;;;;;10.03;3.70;;;15.80;61.00;;;;;;4980632;28;20549;-79
2023/01/10 09:16:29;;;;;;;7.73;3.93;;;15.90;61.10;;;;;;4977545;28;20449;-79
2023/01/10 09:18:58;;;;;;;7.03;3.80;;;15.90;61.10;;;;;;4981016;28;20457;-78
2023/01/10 09:21:27;;;;;;;6.27;3.60;;;16.00;61.30;;;;;;4981391;28;20434;-78
2023/01/10 09:23:54;;;;;;;6.17;3.43;;;16.20;61.40;;;;;;4977430;28;20466;-80
2023/01/10 09:26:22;;;;;;;10.67;3.80;;;16.30;61.30;;;;;;4976614;28;20439;-80
2023/01/10 09:28:50;;;;;;;9.60;3.90;;;16.40;61.00;;;;;;4977860;28;20470;-79
2023/01/10 09:31:18;;;;;;;8.50;4.03;;;16.50;60.90;;;;;;4981364;28;20449;-79
2023/01/10 09:33:48;;;;;;;11.53;3.13;;;16.50;61.00;;;;;;4977495;28;20556;-79
2023/01/10 09:36:17;;;;;;;8.60;3.73;;;16.60;61.00;;;;;;4975658;28;20445;-79
2023/01/10 09:38:45;;;;;;;6.47;3.80;;;16.60;60.90;;;;;;4981140;28;20446;-79
2023/01/10 09:41:42;;;;;;;6.33;3.90;;;16.60;60.90;;;;;;4980664;28;20449;-79
2023/01/10 09:44:16;;;;;;;8.90;3.33;;;16.60;61.00;;;;;;4971552;28;20481;-79
2023/01/10 09:46:48;;;;;;;5.07;3.30;;;16.60;61.20;;;;;;4980141;28;20457;-79
2023/01/10 09:49:21;;;;;;;8.97;3.60;;;16.50;61.30;;;;;;4978513;28;20465;-80
2023/01/10 09:51:51;;;;;;;5.97;3.73;;;16.60;61.40;;;;;;4988655;28;20921;-79
2023/01/10 09:54:23;;;;;;;6.50;3.23;;;16.60;61.40;;;;;;4977690;28;20500;-79
2023/01/10 09:56:51;;;;;;;9.77;4.00;;;16.60;61.40;;;;;;4984799;28;20449;-80
2023/01/10 09:59:21;;;;;;;9.17;4.07;;;16.50;61.40;;;;;;4984256;28;20434;-80
2023/01/10 10:01:49;;;;;;;9.80;3.90;;;16.60;61.70;;;;;;4984145;28;20450;-79
2023/01/10 10:04:21;;;;;;;7.20;3.73;;;16.60;61.60;;;;;;4984023;28;20473;-79
2023/01/10 10:06:51;;;;;;;6.90;3.70;;;16.60;61.80;;;;;;4980790;28;20450;-79
2023/01/10 10:09:21;;;;;;;8.30;3.90;;;16.60;61.50;;;;;;4980112;28;20473;-80
2023/01/10 10:11:56;;;;;;;7.17;3.50;;;16.70;61.60;;;;;;4983645;28;20434;-79
2023/01/10 10:14:31;;;;;;;7.80;3.50;;;16.70;61.50;;;;;;4974764;28;20467;-79
2023/01/10 10:17:09;;;;;;;5.67;3.57;;;16.60;61.40;;;;;;4981604;28;20434;-79
2023/01/10 10:19:44;;;;;;;10.13;4.10;;;16.60;61.60;;;;;;4983680;28;20433;-80
2023/01/10 10:22:16;;;;;;;9.30;4.30;;;16.60;61.70;;;;;;4983818;28;20430;-79
2023/01/10 10:24:52;;;;;;;9.20;3.80;;;16.70;61.80;;;;;;4985027;28;21009;-79
2023/01/10 10:27:22;;;;;;;6.40;3.40;;;16.70;61.80;;;;;;4975891;28;20438;-79
2023/01/10 10:30:32;;;;;;;9.23;3.83;;;16.70;61.90;;;;;;4982393;28;20481;-80
2023/01/10 10:33:06;;;;;;;14.67;4.20;;;16.70;62.10;;;;;;4940253;29;20472;-80
2023/01/10 10:35:35;;;;;;;6.33;3.60;;;16.70;61.80;;;;;;4975776;28;20446;-79
2023/01/10 10:38:08;;;;;;;10.50;4.07;;;16.80;62.00;;;;;;4982127;28;20454;-80
2023/01/10 10:40:38;;;;;;;11.67;4.07;;;16.70;61.80;;;;;;4982651;28;20446;-78
2023/01/10 10:43:13;;;;;;;8.60;3.70;;;16.80;62.20;;;;;;4982237;28;20486;-79
2023/01/10 10:45:42;;;;;;;10.47;3.90;;;16.90;62.10;;;;;;4978605;28;20434;-79
2023/01/10 10:48:13;;;;;;;7.63;3.30;;;17.00;62.10;;;;;;4981885;28;20434;-80
2023/01/10 10:50:45;;;;;;;8.73;3.63;;;17.00;62.10;;;;;;4978485;28;20470;-79
2023/01/10 10:53:15;;;;;;;9.47;4.07;;;17.20;62.20;;;;;;4981995;28;20454;-80
2023/01/10 10:55:42;;;;;;;9.30;4.00;;;17.40;62.30;;;;;;4982112;28;20448;-79
2023/01/10 10:58:11;;;;;;;8.10;3.90;;;17.60;62.10;;;;;;4981880;28;20461;-80
2023/01/10 11:00:39;;;;;;;14.37;4.33;;;17.70;61.50;;;;;;4981004;28;20431;-80
2023/01/10 11:03:16;;;;;;;10.20;4.07;;;17.80;61.40;;;;;;4981349;28;20481;-79
2023/01/10 11:05:45;;;;;;;10.00;3.73;;;17.80;61.30;;;;;;4979705;28;20434;-80
2023/01/10 11:08:15;;;;;;;7.50;3.50;;;18.00;61.90;;;;;;4967143;28;20937;-79
2023/01/10 11:10:46;;;;;;;9.30;3.90;;;18.10;61.50;;;;;;4974847;28;20475;-77
2023/01/10 11:13:17;;;;;;;6.57;3.70;;;18.30;61.60;;;;;;4973549;28;20537;-79
2023/01/10 11:15:46;;;;;;;9.63;4.17;;;18.40;61.50;;;;;;4981954;28;20434;-78
2023/01/10 11:18:15;;;;;;;10.43;4.10;;;18.50;61.40;;;;;;4974586;28;20446;-78
2023/01/10 11:20:51;;;;;;;6.93;3.37;;;18.60;61.40;;;;;;4980483;28;20462;-79
2023/01/10 11:23:26;;;;;;;11.77;3.63;;;18.80;61.10;;;;;;4973273;28;20470;-79
2023/01/10 11:25:54;;;;;;;10.27;4.50;;;18.80;60.80;;;;;;4980988;28;20460;-80
2023/01/10 11:28:23;;;;;;;10.27;5.63;;;18.80;60.70;;;;;;4973447;28;20453;-79
2023/01/10 11:30:51;;;;;;;8.50;4.80;;;18.80;60.60;;;;;;4975679;28;20481;-78
2023/01/10 11:33:21;;;;;;;9.60;4.73;;;18.80;60.70;;;;;;4974734;28;20492;-79
2023/01/10 11:35:56;;;;;;;8.60;5.07;;;18.80;60.70;;;;;;4976564;28;20446;-78
2023/01/10 11:38:28;;;;;;;9.73;5.27;;;18.70;60.70;;;;;;4974409;28;20438;-78
2023/01/10 11:40:58;;;;;;;7.60;5.00;;;18.70;60.80;;;;;;4978540;28;20446;-79
2023/01/10 11:43:32;;;;;;;14.17;4.70;;;18.70;61.00;;;;;;4978346;28;20454;-79
2023/01/10 11:46:02;;;;;;;10.50;5.20;;;18.70;60.80;;;;;;4978460;28;20442;-79
2023/01/10 11:48:45;;;;;;;10.00;5.40;;;18.60;60.90;;;;;;4978639;28;20458;-78
2023/01/10 11:51:33;;;;;;;9.27;4.50;;;18.60;60.90;;;;;;4971167;28;20426;-77
2023/01/10 11:54:03;;;;;;;11.10;4.90;;;18.60;61.20;;;;;;4963280;28;20459;-80
2023/01/10 11:56:32;;;;;;;7.43;4.57;;;18.60;61.00;;;;;;4979293;28;20446;-79
2023/01/10 11:59:07;;;;;;;6.83;4.37;;;18.60;61.30;;;;;;4979483;28;20433;-77
2023/01/10 12:01:39;;;;;;;9.50;5.00;;;18.50;60.90;;;;;;4980149;28;20811;-79
2023/01/10 12:04:07;;;;;;;7.10;4.60;;;18.50;61.00;;;;;;4975496;28;20459;-78
2023/01/10 12:06:35;;;;;;;7.20;4.33;;;18.50;60.90;;;;;;4973257;28;20434;-79
2023/01/10 12:09:04;;;;;;;9.07;4.70;;;18.50;61.00;;;;;;4978076;28;20442;-78
2023/01/10 12:11:34;;;;;;;8.00;4.40;;;18.40;60.80;;;;;;4979792;28;20481;-79
2023/01/10 12:14:02;;;;;;;12.83;4.73;;;18.40;61.00;;;;;;4978266;28;20470;-78
2023/01/10 12:16:31;;;;;;;11.90;5.07;;;18.40;61.10;;;;;;4979266;28;20469;-78
2023/01/10 12:19:00;;;;;;;14.57;5.30;;;18.40;61.00;;;;;;4980499;28;20454;-79
2023/01/10 12:21:31;;;;;;;9.80;4.47;;;18.30;61.10;;;;;;4980232;28;20458;-78
2023/01/10 12:24:01;;;;;;;8.80;4.37;;;18.40;61.00;;;;;;4976256;28;20477;-79
2023/01/10 12:26:31;;;;;;;9.30;4.33;;;18.30;60.90;;;;;;4981243;28;20453;-79
2023/01/10 12:29:02;;;;;;;9.70;4.30;;;18.30;60.90;;;;;;4973488;28;20431;-80
2023/01/10 12:31:30;;;;;;;7.40;4.23;;;18.30;60.80;;;;;;4979944;28;20476;-78
2023/01/10 12:34:01;;;;;;;13.93;4.30;;;18.20;60.90;;;;;;4978803;28;20477;-78
2023/01/10 12:36:34;;;;;;;9.40;4.20;;;18.20;60.80;;;;;;4979948;28;20852;-78
2023/01/10 12:39:08;;;;;;;7.60;3.67;;;18.30;60.90;;;;;;4979812;28;20438;-78
2023/01/10 12:44:33;;;;;;;7.70;4.10;;;18.20;60.60;;;;;;4978757;28;20456;-78
2023/01/10 12:47:04;;;;;;;10.07;4.03;;;18.20;60.70;;;;;;4976289;28;20434;-80
2023/01/10 12:49:39;;;;;;;10.93;4.23;;;18.20;60.90;;;;;;4979115;28;20445;-79
2023/01/10 12:52:11;;;;;;;12.30;4.50;;;18.10;60.70;;;;;;4972221;28;20435;-79
2023/01/10 12:54:40;;;;;;;12.63;4.50;;;18.10;60.60;;;;;;4984101;28;20457;-78
2023/01/10 12:57:22;;;;;;;12.57;4.57;;;18.10;60.60;;;;;;4982472;28;20453;-80
2023/01/10 12:59:50;;;;;;;10.23;4.13;;;18.10;60.40;;;;;;4976924;28;20529;-80
2023/01/10 13:02:19;;;;;;;11.80;4.70;;;18.00;60.60;;;;;;4973581;28;20442;-79
2023/01/10 13:04:48;;;;;;;10.20;4.17;;;18.00;60.50;;;;;;4980724;28;20481;-79
2023/01/10 13:07:16;;;;;;;9.63;3.90;;;18.00;60.50;;;;;;4968023;28;20441;-79
2023/01/10 13:09:44;;;;;;;12.97;4.30;;;18.00;60.50;;;;;;4976722;28;20458;-79
2023/01/10 13:12:19;;;;;;;13.47;4.47;;;18.00;60.40;;;;;;4969448;28;20438;-80